Capewater — PBPQ — position and weather

sailwx.info

Track history (hours):
 
Tides and Currents Weather Stations Pressure Air Temp Water Temp Dewpoint Dewpoint Depression Visibility Wind Speed Wind Dir Waves Ship Positions

Capewater

Last reported at 2018-Feb-23 18:00 UTC. Time now 2018-Feb-23 18:00 UTC.
Position N 51°22' E 002°46'.

Length 100 m; draft 5.2 m.

Type: Tanker. MMSI: 246346000.

Date/timePositionNaut miles runAvg speedWind from/ knotsBaromVisibWave heightAir tempDewpointWater temp
2018-Feb-23 18:00N 51°22' E 002°46'613.0
2018-Feb-23 17:31N 51°23' E 002°56'612.3
2018-Feb-23 17:01N 51°24' E 003°06'612.2
2018-Feb-23 16:31N 51°25' E 003°15'612.1
2018-Feb-23 16:01N 51°25' E 003°25'611.7
2018-Feb-23 15:30N 51°26' E 003°35'511.2
2018-Feb-23 15:00N 51°23' E 003°42'613.0
2018-Feb-23 14:30N 51°21' E 003°52'713.2
2018-Feb-23 14:00N 51°26' E 003°59'612.3
2018-Feb-23 13:31N 51°22' E 004°06'510.8
2018-Feb-23 13:00N 51°21' E 004°15'510.9
2018-Feb-23 12:31N 51°17' E 004°20'0 0.2
2018-Feb-23 12:01N 51°17' E 004°20'0 0.5
2018-Feb-23 11:30N 51°16' E 004°20'1 2.4
2018-Feb-23 10:55N 51°18' E 004°20'3 6.5
2018-Feb-23 10:30N 51°20' E 004°18'1 2.5
2018-Feb-23 09:56N 51°22' E 004°17'0 0.0
2018-Feb-23 09:26N 51°22' E 004°17'0 0.0
2018-Feb-23 08:44N 51°22' E 004°17'0 0.0
2018-Feb-23 08:26N 51°22' E 004°17'0 0.0
2018-Feb-23 07:56N 51°22' E 004°17'0 0.0
2018-Feb-23 06:35N 51°22' E 004°17'0 0.0
2018-Feb-23 06:20N 51°22' E 004°17'0 0.0
2018-Feb-23 05:50N 51°22' E 004°17'0 0.0
2018-Feb-23 05:26N 51°22' E 004°17'0 0.0
2018-Feb-23 04:59N 51°22' E 004°17'0 0.0
2018-Feb-23 04:29N 51°22' E 004°17'0 0.0
2018-Feb-23 03:59N 51°22' E 004°17'0 0.0
2018-Feb-23 03:26N 51°22' E 004°17'0 0.0
2018-Feb-23 02:56N 51°22' E 004°17'0 0.0
2018-Feb-23 02:29N 51°22' E 004°17'0 0.0
2018-Feb-23 01:59N 51°22' E 004°17'0 0.0
2018-Feb-23 00:47N 51°22' E 004°17'0 0.0
2018-Feb-22 23:41N 51°22' E 004°17'0 0.0
2018-Feb-22 23:17N 51°22' E 004°17'0 0.0
2018-Feb-22 22:11N 51°22' E 004°17'0 0.0
2018-Feb-22 19:53N 51°22' E 004°17'0 0.0
2018-Feb-22 19:26N 51°22' E 004°17'0 0.0
2018-Feb-22 18:47N 51°22' E 004°17'0 0.0
2018-Feb-22 18:29N 51°22' E 004°17'0 0.0
2018-Feb-22 15:44N 51°22' E 004°17'0 0.0
2018-Feb-22 15:20N 51°22' E 004°17'0 0.0
2018-Feb-22 14:59N 51°22' E 004°17'0 0.0
2018-Feb-22 14:14N 51°22' E 004°17'0 0.0
2018-Feb-22 13:50N 51°22' E 004°17'1 1.8
2018-Feb-22 13:30N 51°21' E 004°18'1 1.2
2018-Feb-22 13:00N 51°21' E 004°17'0 0.2
2018-Feb-22 12:30N 51°21' E 004°17'2 5.0
2018-Feb-22 12:01N 51°22' E 004°13'4 7.7
2018-Feb-22 11:30N 51°22' E 004°07'5 9.3
2018-Feb-22 11:00N 51°25' E 004°02'4 8.1
2018-Feb-22 10:31N 51°23' E 003°57'510.3
2018-Feb-22 10:00N 51°21' E 003°49'510.7
2018-Feb-22 09:30N 51°24' E 003°42'3 6.4
2018-Feb-22 08:58N 51°25' E 003°37'0 0.0
2018-Feb-22 08:28N 51°25' E 003°37'0 0.0
2018-Feb-22 07:58N 51°25' E 003°37'0 0.0
2018-Feb-22 07:25N 51°25' E 003°37'0 0.0
2018-Feb-22 06:55N 51°25' E 003°37'0 0.0
2018-Feb-22 06:25N 51°25' E 003°37'0 0.0
2018-Feb-22 05:55N 51°25' E 003°37'0 0.3
2018-Feb-22 05:28N 51°25' E 003°37'0 0.1
2018-Feb-22 04:58N 51°25' E 003°37'0 0.0
2018-Feb-22 04:25N 51°25' E 003°37'0 0.0
2018-Feb-22 03:58N 51°25' E 003°37'0 0.0
2018-Feb-22 03:28N 51°25' E 003°37'0 0.0
2018-Feb-22 02:58N 51°25' E 003°37'0 0.0
2018-Feb-22 02:28N 51°25' E 003°37'0 0.0
2018-Feb-22 01:55N 51°25' E 003°37'0 0.1
2018-Feb-22 01:28N 51°25' E 003°37'0 0.1
2018-Feb-22 00:58N 51°25' E 003°37'0 0.0
2018-Feb-22 00:28N 51°25' E 003°37'0 0.1
2018-Feb-21 23:58N 51°25' E 003°37'0 0.0
2018-Feb-21 23:28N 51°25' E 003°37'0 0.0
2018-Feb-21 22:58N 51°25' E 003°37'0 0.0
2018-Feb-21 22:25N 51°25' E 003°37'0 0.0
2018-Feb-21 21:55N 51°25' E 003°37'0 0.0
2018-Feb-21 21:22N 51°25' E 003°37'0 0.0
2018-Feb-21 20:55N 51°25' E 003°37'0 0.0
2018-Feb-21 20:28N 51°25' E 003°37'0 0.0
2018-Feb-21 19:52N 51°25' E 003°37'0 0.0
2018-Feb-21 19:28N 51°25' E 003°37'0 0.0
2018-Feb-21 18:55N 51°25' E 003°37'0 0.0
2018-Feb-21 18:25N 51°25' E 003°37'0 0.2
2018-Feb-21 17:55N 51°25' E 003°37'0 0.1
2018-Feb-21 17:28N 51°25' E 003°37'0 0.1
2018-Feb-21 16:58N 51°25' E 003°37'0 0.0
2018-Feb-21 16:28N 51°25' E 003°37'0 0.0
2018-Feb-21 15:55N 51°25' E 003°37'0 0.0
2018-Feb-21 15:28N 51°25' E 003°37'0 0.0
2018-Feb-21 14:55N 51°25' E 003°37'0 0.0
2018-Feb-21 14:28N 51°25' E 003°37'0 0.0
2018-Feb-21 13:49N 51°25' E 003°37'0 0.0
2018-Feb-21 13:28N 51°25' E 003°37'0 0.1
2018-Feb-21 12:55N 51°25' E 003°37'0 0.1
2018-Feb-21 12:28N 51°25' E 003°37'0 0.1
2018-Feb-21 11:55N 51°25' E 003°37'0 0.1
2018-Feb-21 11:13N 51°25' E 003°37'0 0.0
2018-Feb-21 10:52N 51°25' E 003°37'0 0.0
2018-Feb-21 10:28N 51°25' E 003°37'0 0.0
2018-Feb-21 09:55N 51°25' E 003°37'0 0.0
2018-Feb-21 09:25N 51°25' E 003°37'0 0.0
2018-Feb-21 08:55N 51°25' E 003°37'0 0.0
2018-Feb-21 08:25N 51°25' E 003°37'0 0.0
2018-Feb-21 07:55N 51°25' E 003°37'0 0.0
2018-Feb-21 07:25N 51°25' E 003°37'0 0.0
2018-Feb-21 06:55N 51°25' E 003°37'0 0.0
2018-Feb-21 06:25N 51°25' E 003°37'0 0.0
2018-Feb-21 05:58N 51°25' E 003°37'0 0.0
2018-Feb-21 05:25N 51°25' E 003°37'0 0.2
2018-Feb-21 04:55N 51°25' E 003°37'0 0.0
2018-Feb-21 04:22N 51°25' E 003°37'0 0.0
2018-Feb-21 03:55N 51°25' E 003°37'0 0.0
2018-Feb-21 03:28N 51°25' E 003°37'0 0.0
2018-Feb-21 02:58N 51°25' E 003°37'0 0.0
2018-Feb-21 02:25N 51°25' E 003°37'0 0.0
2018-Feb-21 01:58N 51°25' E 003°37'0 0.0
2018-Feb-21 01:28N 51°25' E 003°37'0 0.0
2018-Feb-21 00:49N 51°25' E 003°37'0 0.1
2018-Feb-21 00:25N 51°25' E 003°37'0 0.0
2018-Feb-20 23:55N 51°25' E 003°37'0 0.1
2018-Feb-20 23:28N 51°25' E 003°37'0 0.1
2018-Feb-20 22:55N 51°25' E 003°37'0 0.0
2018-Feb-20 22:28N 51°25' E 003°37'0 0.0
2018-Feb-20 21:55N 51°25' E 003°37'0 0.0
2018-Feb-20 21:25N 51°25' E 003°37'0 0.0
2018-Feb-20 20:55N 51°25' E 003°37'0 0.0
2018-Feb-20 20:28N 51°25' E 003°37'0 0.0
2018-Feb-20 19:58N 51°25' E 003°37'0 0.0
2018-Feb-20 19:22N 51°25' E 003°37'0 0.0
2018-Feb-20 19:00N 51°25' E 003°37'0 0.0
2018-Feb-20 18:30N 51°25' E 003°37'0 0.1
2018-Feb-20 18:00N 51°25' E 003°37'0 0.1
2018-Feb-20 17:30N 51°25' E 003°37'2 4.5
2018-Feb-20 17:01N 51°25' E 003°40'510.4
2018-Feb-20 16:30N 51°21' E 003°46'0 0.0
2018-Feb-20 15:58N 51°21' E 003°46'0 0.0
2018-Feb-20 15:25N 51°21' E 003°46'0 0.0
2018-Feb-20 14:58N 51°21' E 003°46'0 0.0
2018-Feb-20 14:28N 51°21' E 003°46'0 0.0
2018-Feb-20 13:58N 51°21' E 003°46'0 0.0
2018-Feb-20 13:28N 51°21' E 003°46'0 0.0
2018-Feb-20 12:58N 51°21' E 003°46'0 0.0
2018-Feb-20 12:28N 51°21' E 003°46'0 0.0
2018-Feb-20 11:55N 51°21' E 003°46'0 0.0
2018-Feb-20 11:22N 51°21' E 003°46'0 0.0
2018-Feb-20 10:58N 51°21' E 003°46'0 0.0
2018-Feb-20 10:28N 51°21' E 003°46'0 0.0
2018-Feb-20 09:58N 51°21' E 003°46'0 0.0
2018-Feb-20 09:28N 51°21' E 003°46'0 0.0
2018-Feb-20 08:58N 51°21' E 003°46'0 0.0
2018-Feb-20 08:28N 51°21' E 003°46'0 0.0
2018-Feb-20 07:58N 51°21' E 003°46'0 0.0
2018-Feb-20 07:28N 51°21' E 003°46'0 0.0
2018-Feb-20 06:58N 51°21' E 003°46'0 0.0
2018-Feb-20 06:28N 51°21' E 003°46'0 0.0
2018-Feb-20 05:58N 51°21' E 003°46'0 0.0
2018-Feb-20 05:28N 51°21' E 003°46'0 0.0
2018-Feb-20 04:58N 51°21' E 003°46'0 0.0
2018-Feb-20 04:28N 51°21' E 003°46'0 0.0
2018-Feb-20 03:58N 51°21' E 003°46'0 0.0
2018-Feb-20 03:25N 51°21' E 003°46'0 0.0
2018-Feb-20 02:58N 51°21' E 003°46'0 0.0
2018-Feb-20 02:28N 51°21' E 003°46'0 0.0
2018-Feb-20 01:52N 51°21' E 003°46'0 0.0
2018-Feb-20 01:28N 51°21' E 003°46'0 0.0
2018-Feb-20 00:58N 51°21' E 003°46'0 0.0
2018-Feb-20 00:28N 51°21' E 003°46'0 0.0
2018-Feb-20 00:00N 51°21' E 003°46'1 1.8
2018-Feb-19 23:30N 51°22' E 003°45'3 5.8
2018-Feb-19 23:00N 51°24' E 003°43'4 8.7
2018-Feb-19 22:30N 51°26' E 003°36'4 8.3
2018-Feb-19 22:00N 51°28' E 003°31'5 9.8
2018-Feb-19 21:29N 51°32' E 003°25'510.0
2018-Feb-19 20:59N 51°36' E 003°22'712.7
2018-Feb-19 20:28N 51°42' E 003°17'4 7.5
2018-Feb-19 19:59N 51°46' E 003°16'6 0.8
2018-Feb-19 11:38N 51°49' E 003°24'0 0.0
2018-Feb-18 22:08N 51°49' E 003°24'0 0.0
2018-Feb-18 21:41N 51°49' E 003°24'0 0.0
2018-Feb-18 21:05N 51°49' E 003°24'0 0.1
2018-Feb-18 17:45N 51°49' E 003°24'511.1
2018-Feb-18 17:16N 51°54' E 003°20'611.3
2018-Feb-18 16:46N 51°60' E 003°20'311.5
2018-Feb-18 16:28N 52°03' E 003°21'511.3
2018-Feb-18 16:00N 52°08' E 003°22'611.1
2018-Feb-18 15:29N 52°14' E 003°23'611.3
2018-Feb-18 14:56N 52°20' E 003°24'611.7
2018-Feb-18 14:26N 52°26' E 003°26'512.3
2018-Feb-18 14:00N 52°31' E 003°28'1312.8
2018-Feb-18 12:58N 52°43' E 003°39'713.5
2018-Feb-18 12:29N 52°48' E 003°46'613.6
2018-Feb-18 12:00N 52°52' E 003°53'813.6
2018-Feb-18 11:27N 52°58' E 004°01'913.6
2018-Feb-18 10:46N 53°04' E 004°13'413.3
2018-Feb-18 10:30N 53°06' E 004°17'713.1
2018-Feb-18 10:00N 53°11' E 004°25'1812.6
2018-Feb-18 08:34N 53°28' E 004°37'412.4
2018-Feb-18 08:16N 53°30' E 004°42'312.5
2018-Feb-18 08:00N 53°31' E 004°47'1812.0
2018-Feb-18 06:33N 53°37' E 005°14'212.4
2018-Feb-18 06:22N 53°38' E 005°18'9513.7
2018-Feb-17 23:27N 54°01' E 007°54'712.8
2018-Feb-17 22:51N 54°01' E 008°07'410.2
2018-Feb-17 22:30N 54°00' E 008°13'5 9.8
2018-Feb-17 22:00N 53°60' E 008°21'5 9.8
2018-Feb-17 21:30N 53°59' E 008°30'612.3
2018-Feb-17 21:00N 53°56' E 008°39'815.3
2018-Feb-17 20:30N 53°51' E 008°48'816.8
2018-Feb-17 20:00N 53°52' E 009°02'5 9.3
2018-Feb-17 19:30N 53°54' E 009°09'0 0.0
2018-Feb-17 19:00N 53°54' E 009°09'1 1.2
2018-Feb-17 18:30N 53°54' E 009°09'1 1.3
2018-Feb-17 17:59N 53°55' E 009°10'0 0.0
2018-Feb-17 17:29N 53°55' E 009°10'0 0.0
2018-Feb-17 16:59N 53°55' E 009°10'0 0.0
2018-Feb-17 16:29N 53°55' E 009°10'0 0.0
2018-Feb-17 15:59N 53°55' E 009°10'0 0.0
2018-Feb-17 15:29N 53°55' E 009°10'0 0.0
2018-Feb-17 14:59N 53°55' E 009°10'0 0.0
2018-Feb-17 14:14N 53°55' E 009°10'0 0.0
2018-Feb-17 13:50N 53°55' E 009°10'0 0.0
2018-Feb-17 13:29N 53°55' E 009°10'0 0.0
2018-Feb-17 12:56N 53°55' E 009°10'0 0.0
2018-Feb-17 12:26N 53°55' E 009°10'0 0.0
2018-Feb-17 11:59N 53°55' E 009°10'0 0.0
2018-Feb-17 11:29N 53°55' E 009°10'0 0.0
2018-Feb-17 10:56N 53°55' E 009°10'0 0.0
2018-Feb-17 10:29N 53°55' E 009°10'0 0.0
2018-Feb-17 09:56N 53°55' E 009°10'0 0.0
2018-Feb-17 09:26N 53°55' E 009°10'0 0.0
2018-Feb-17 08:56N 53°55' E 009°10'0 0.0
2018-Feb-17 08:29N 53°55' E 009°10'0 0.0
2018-Feb-17 07:56N 53°55' E 009°10'0 0.0
2018-Feb-17 07:29N 53°55' E 009°10'0 0.0
2018-Feb-17 06:56N 53°55' E 009°10'0 0.0
2018-Feb-17 06:29N 53°55' E 009°10'0 0.0
2018-Feb-17 05:59N 53°55' E 009°10'0 0.0
2018-Feb-17 05:23N 53°55' E 009°10'0 0.0
2018-Feb-17 04:59N 53°55' E 009°10'0 0.0
2018-Feb-17 04:29N 53°55' E 009°10'0 0.0
2018-Feb-17 03:59N 53°55' E 009°10'0 0.0
2018-Feb-17 03:30N 53°55' E 009°10'1 2.6
2018-Feb-17 03:00N 53°54' E 009°09'0 0.3
2018-Feb-17 02:30N 53°54' E 009°09'2 4.5
2018-Feb-17 02:01N 53°52' E 009°05'713.4
2018-Feb-17 01:30N 53°51' E 008°54'713.7
2018-Feb-17 01:00N 53°52' E 008°43'814.9
2018-Feb-17 00:30N 53°58' E 008°34'815.6
2018-Feb-17 00:00N 53°59' E 008°22'9 1.2
2018-Feb-16 16:38N 54°03' E 008°08'0 0.1
2018-Feb-16 16:30N 54°03' E 008°08'1 1.6
2018-Feb-16 15:56N 54°04' E 008°09'0 1.0
2018-Feb-16 15:30N 54°04' E 008°08'2 3.1
2018-Feb-16 14:59N 54°04' E 008°06'1 1.7
2018-Feb-16 14:28N 54°05' E 008°07'1 2.6
2018-Feb-16 13:56N 54°04' E 008°09'1 2.4
2018-Feb-16 13:30N 54°05' E 008°08'2 4.1
2018-Feb-16 12:58N 54°04' E 008°04'1 1.9
2018-Feb-16 12:30N 54°04' E 008°02'1 1.2
2018-Feb-16 12:00N 54°04' E 008°03'1 1.0
2018-Feb-16 11:29N 54°04' E 008°04'0 0.8
2018-Feb-16 11:00N 54°04' E 008°05'0 0.9
2018-Feb-16 10:27N 54°04' E 008°06'0 0.8
2018-Feb-16 10:00N 54°04' E 008°06'0 0.9
2018-Feb-16 09:28N 54°04' E 008°07'1 0.1
2018-Feb-16 04:41N 54°03' E 008°08'0 0.0
2018-Feb-16 04:29N 54°03' E 008°08'0 0.1
2018-Feb-16 03:59N 54°03' E 008°08'0 0.0
2018-Feb-16 03:23N 54°03' E 008°08'0 0.1
2018-Feb-16 02:56N 54°03' E 008°08'0 0.0
2018-Feb-16 02:29N 54°03' E 008°08'0 0.1
2018-Feb-16 01:59N 54°03' E 008°08'0 0.1
2018-Feb-16 01:26N 54°03' E 008°08'0 0.0
2018-Feb-16 00:59N 54°03' E 008°08'0 0.0
2018-Feb-16 00:29N 54°03' E 008°08'0 0.0
2018-Feb-15 23:56N 54°03' E 008°08'0 0.0
2018-Feb-15 23:20N 54°03' E 008°08'0 0.0
2018-Feb-15 22:59N 54°03' E 008°08'0 0.0
2018-Feb-15 22:29N 54°03' E 008°08'0 0.0
2018-Feb-15 21:59N 54°03' E 008°08'0 0.0
2018-Feb-15 21:26N 54°03' E 008°08'0 0.0
2018-Feb-15 20:59N 54°03' E 008°08'0 0.0
2018-Feb-15 20:26N 54°03' E 008°08'0 0.0
2018-Feb-15 19:59N 54°03' E 008°08'0 0.0
2018-Feb-15 19:26N 54°03' E 008°08'0 0.0
2018-Feb-15 18:56N 54°03' E 008°08'0 0.0
2018-Feb-15 18:29N 54°03' E 008°08'0 0.1
2018-Feb-15 17:59N 54°03' E 008°08'0 0.1
2018-Feb-15 17:26N 54°03' E 008°08'0 0.0
2018-Feb-15 16:35N 54°03' E 008°08'0 0.0
2018-Feb-15 10:02N 54°03' E 008°08'0 0.0
2018-Feb-15 09:41N 54°03' E 008°08'0 0.0
2018-Feb-15 08:26N 54°03' E 008°08'0 0.0
2018-Feb-15 06:23N 54°03' E 008°08'0 0.0
2018-Feb-15 06:00N 54°03' E 008°08'3 6.8
2018-Feb-15 05:30N 54°01' E 008°12'714.7
2018-Feb-15 05:00N 53°59' E 008°24'817.1
2018-Feb-15 04:30N 53°57' E 008°38'816.7
2018-Feb-15 04:00N 53°51' E 008°47'816.1
2018-Feb-15 03:31N 53°51' E 009°00'713.3
2018-Feb-15 03:00N 53°53' E 009°11'713.6
2018-Feb-15 02:30N 53°50' E 009°21'612.4
2018-Feb-15 02:00N 53°44' E 009°26'510.9
2018-Feb-15 01:30N 53°40' E 009°31'510.7
2018-Feb-15 01:00N 53°35' E 009°37'5 9.3
2018-Feb-15 00:31N 53°34' E 009°44'5 9.2
2018-Feb-15 00:00N 53°33' E 009°52'3 6.9
2018-Feb-14 23:30N 53°31' E 009°56'2 4.2
2018-Feb-14 22:58N 53°29' E 009°57'0 0.0
2018-Feb-14 22:28N 53°29' E 009°57'0 0.0
2018-Feb-14 21:58N 53°29' E 009°57'0 0.0
2018-Feb-14 21:28N 53°29' E 009°57'0 0.0
2018-Feb-14 20:58N 53°29' E 009°57'0 0.0
2018-Feb-14 20:28N 53°29' E 009°57'0 0.0
2018-Feb-14 19:58N 53°29' E 009°57'0 0.0
2018-Feb-14 19:28N 53°29' E 009°57'0 0.0
2018-Feb-14 18:58N 53°29' E 009°57'0 0.0
2018-Feb-14 18:28N 53°29' E 009°57'0 0.0
2018-Feb-14 17:58N 53°29' E 009°57'0 0.0
2018-Feb-14 17:28N 53°29' E 009°57'0 0.0
2018-Feb-14 16:58N 53°29' E 009°57'0 0.0
2018-Feb-14 16:28N 53°29' E 009°57'0 0.0
2018-Feb-14 15:58N 53°29' E 009°57'0 0.0
2018-Feb-14 15:28N 53°29' E 009°57'0 0.0
2018-Feb-14 14:58N 53°29' E 009°57'0 0.0
2018-Feb-14 14:28N 53°29' E 009°57'0 0.0
2018-Feb-14 13:58N 53°29' E 009°57'0 0.0
2018-Feb-14 13:28N 53°29' E 009°57'0 0.0
2018-Feb-14 12:58N 53°29' E 009°57'0 0.0
2018-Feb-14 12:28N 53°29' E 009°57'0 0.0
2018-Feb-14 11:58N 53°29' E 009°57'0 0.0
2018-Feb-14 11:25N 53°29' E 009°57'0 0.0
2018-Feb-14 10:58N 53°29' E 009°57'0 0.0
2018-Feb-14 10:28N 53°29' E 009°57'0 0.0
2018-Feb-14 09:58N 53°29' E 009°57'0 0.0
2018-Feb-14 09:28N 53°29' E 009°57'0 0.0
2018-Feb-14 08:58N 53°29' E 009°57'0 0.0
2018-Feb-14 08:28N 53°29' E 009°57'0 0.0
2018-Feb-14 07:58N 53°29' E 009°57'0 0.9
2018-Feb-14 07:30N 53°29' E 009°58'1 2.5
2018-Feb-14 07:00N 53°30' E 009°57'3 5.5
2018-Feb-14 06:30N 53°32' E 009°55'3 6.4
2018-Feb-14 06:00N 53°33' E 009°49'4 8.7
2018-Feb-14 05:30N 53°34' E 009°42'4 8.5
2018-Feb-14 05:00N 53°36' E 009°36'4 8.6
2018-Feb-14 04:30N 53°39' E 009°31'4 8.8
2018-Feb-14 04:00N 53°43' E 009°28'4 8.4
2018-Feb-14 03:31N 53°46' E 009°24'4 8.8
2018-Feb-14 03:00N 53°50' E 009°20'5 9.2
2018-Feb-14 02:30N 53°53' E 009°14'4 8.8
2018-Feb-14 02:00N 53°53' E 009°06'4 7.6
2018-Feb-14 01:30N 53°51' E 009°00'4 8.2
2018-Feb-14 01:00N 53°50' E 008°53'4 9.0
2018-Feb-14 00:30N 53°51' E 008°46'5 9.5
2018-Feb-14 00:00N 53°55' E 008°41'510.5
2018-Feb-13 23:30N 53°58' E 008°34'612.3
2018-Feb-13 23:00N 53°59' E 008°24'612.7
2018-Feb-13 22:30N 53°59' E 008°13'613.0
2018-Feb-13 22:00N 53°59' E 008°02'814.9
2018-Feb-13 21:30N 53°57' E 007°49'  
Track history (hours):
 
Tides and Currents Weather Stations Pressure Air Temp Water Temp Dewpoint Dewpoint Depression Visibility Wind Speed Wind Dir Waves Ship Positions

Capewater

Last reported at 2018-Feb-23 18:00 UTC. Time now 2018-Feb-23 18:00 UTC.
Position N 51°22' E 002°46'.

Length 100 m; draft 5.2 m.

Type: Tanker. MMSI: 246346000.

Date/timePositionNaut miles runAvg speedWind from/ knotsBaromVisibWave heightAir tempDewpointWater temp
2018-Feb-23 18:00N 51°22' E 002°46'613.0
2018-Feb-23 17:31N 51°23' E 002°56'612.3
2018-Feb-23 17:01N 51°24' E 003°06'612.2
2018-Feb-23 16:31N 51°25' E 003°15'612.1
2018-Feb-23 16:01N 51°25' E 003°25'611.7
2018-Feb-23 15:30N 51°26' E 003°35'511.2
2018-Feb-23 15:00N 51°23' E 003°42'613.0
2018-Feb-23 14:30N 51°21' E 003°52'713.2
2018-Feb-23 14:00N 51°26' E 003°59'612.3
2018-Feb-23 13:31N 51°22' E 004°06'510.8
2018-Feb-23 13:00N 51°21' E 004°15'510.9
2018-Feb-23 12:31N 51°17' E 004°20'0 0.2
2018-Feb-23 12:01N 51°17' E 004°20'0 0.5
2018-Feb-23 11:30N 51°16' E 004°20'1 2.4
2018-Feb-23 10:55N 51°18' E 004°20'3 6.5
2018-Feb-23 10:30N 51°20' E 004°18'1 2.5
2018-Feb-23 09:56N 51°22' E 004°17'0 0.0
2018-Feb-23 09:26N 51°22' E 004°17'0 0.0
2018-Feb-23 08:44N 51°22' E 004°17'0 0.0
2018-Feb-23 08:26N 51°22' E 004°17'0 0.0
2018-Feb-23 07:56N 51°22' E 004°17'0 0.0
2018-Feb-23 06:35N 51°22' E 004°17'0 0.0
2018-Feb-23 06:20N 51°22' E 004°17'0 0.0
2018-Feb-23 05:50N 51°22' E 004°17'0 0.0
2018-Feb-23 05:26N 51°22' E 004°17'0 0.0
2018-Feb-23 04:59N 51°22' E 004°17'0 0.0
2018-Feb-23 04:29N 51°22' E 004°17'0 0.0
2018-Feb-23 03:59N 51°22' E 004°17'0 0.0
2018-Feb-23 03:26N 51°22' E 004°17'0 0.0
2018-Feb-23 02:56N 51°22' E 004°17'0 0.0
2018-Feb-23 02:29N 51°22' E 004°17'0 0.0
2018-Feb-23 01:59N 51°22' E 004°17'0 0.0
2018-Feb-23 00:47N 51°22' E 004°17'0 0.0
2018-Feb-22 23:41N 51°22' E 004°17'0 0.0
2018-Feb-22 23:17N 51°22' E 004°17'0 0.0
2018-Feb-22 22:11N 51°22' E 004°17'0 0.0
2018-Feb-22 19:53N 51°22' E 004°17'0 0.0
2018-Feb-22 19:26N 51°22' E 004°17'0 0.0
2018-Feb-22 18:47N 51°22' E 004°17'0 0.0
2018-Feb-22 18:29N 51°22' E 004°17'0 0.0
2018-Feb-22 15:44N 51°22' E 004°17'0 0.0
2018-Feb-22 15:20N 51°22' E 004°17'0 0.0
2018-Feb-22 14:59N 51°22' E 004°17'0 0.0
2018-Feb-22 14:14N 51°22' E 004°17'0 0.0
2018-Feb-22 13:50N 51°22' E 004°17'1 1.8
2018-Feb-22 13:30N 51°21' E 004°18'1 1.2
2018-Feb-22 13:00N 51°21' E 004°17'0 0.2
2018-Feb-22 12:30N 51°21' E 004°17'2 5.0
2018-Feb-22 12:01N 51°22' E 004°13'4 7.7
2018-Feb-22 11:30N 51°22' E 004°07'5 9.3
2018-Feb-22 11:00N 51°25' E 004°02'4 8.1
2018-Feb-22 10:31N 51°23' E 003°57'510.3
2018-Feb-22 10:00N 51°21' E 003°49'510.7
2018-Feb-22 09:30N 51°24' E 003°42'3 6.4
2018-Feb-22 08:58N 51°25' E 003°37'0 0.0
2018-Feb-22 08:28N 51°25' E 003°37'0 0.0
2018-Feb-22 07:58N 51°25' E 003°37'0 0.0
2018-Feb-22 07:25N 51°25' E 003°37'0 0.0
2018-Feb-22 06:55N 51°25' E 003°37'0 0.0
2018-Feb-22 06:25N 51°25' E 003°37'0 0.0
2018-Feb-22 05:55N 51°25' E 003°37'0 0.3
2018-Feb-22 05:28N 51°25' E 003°37'0 0.1
2018-Feb-22 04:58N 51°25' E 003°37'0 0.0
2018-Feb-22 04:25N 51°25' E 003°37'0 0.0
2018-Feb-22 03:58N 51°25' E 003°37'0 0.0
2018-Feb-22 03:28N 51°25' E 003°37'0 0.0
2018-Feb-22 02:58N 51°25' E 003°37'0 0.0
2018-Feb-22 02:28N 51°25' E 003°37'0 0.0
2018-Feb-22 01:55N 51°25' E 003°37'0 0.1
2018-Feb-22 01:28N 51°25' E 003°37'0 0.1
2018-Feb-22 00:58N 51°25' E 003°37'0 0.0
2018-Feb-22 00:28N 51°25' E 003°37'0 0.1
2018-Feb-21 23:58N 51°25' E 003°37'0 0.0
2018-Feb-21 23:28N 51°25' E 003°37'0 0.0
2018-Feb-21 22:58N 51°25' E 003°37'0 0.0
2018-Feb-21 22:25N 51°25' E 003°37'0 0.0
2018-Feb-21 21:55N 51°25' E 003°37'0 0.0
2018-Feb-21 21:22N 51°25' E 003°37'0 0.0
2018-Feb-21 20:55N 51°25' E 003°37'0 0.0
2018-Feb-21 20:28N 51°25' E 003°37'0 0.0
2018-Feb-21 19:52N 51°25' E 003°37'0 0.0
2018-Feb-21 19:28N 51°25' E 003°37'0 0.0
2018-Feb-21 18:55N 51°25' E 003°37'0 0.0
2018-Feb-21 18:25N 51°25' E 003°37'0 0.2
2018-Feb-21 17:55N 51°25' E 003°37'0 0.1
2018-Feb-21 17:28N 51°25' E 003°37'0 0.1
2018-Feb-21 16:58N 51°25' E 003°37'0 0.0
2018-Feb-21 16:28N 51°25' E 003°37'0 0.0
2018-Feb-21 15:55N 51°25' E 003°37'0 0.0
2018-Feb-21 15:28N 51°25' E 003°37'0 0.0
2018-Feb-21 14:55N 51°25' E 003°37'0 0.0
2018-Feb-21 14:28N 51°25' E 003°37'0 0.0
2018-Feb-21 13:49N 51°25' E 003°37'0 0.0
2018-Feb-21 13:28N 51°25' E 003°37'0 0.1
2018-Feb-21 12:55N 51°25' E 003°37'0 0.1
2018-Feb-21 12:28N 51°25' E 003°37'0 0.1
2018-Feb-21 11:55N 51°25' E 003°37'0 0.1
2018-Feb-21 11:13N 51°25' E 003°37'0 0.0
2018-Feb-21 10:52N 51°25' E 003°37'0 0.0
2018-Feb-21 10:28N 51°25' E 003°37'0 0.0
2018-Feb-21 09:55N 51°25' E 003°37'0 0.0
2018-Feb-21 09:25N 51°25' E 003°37'0 0.0
2018-Feb-21 08:55N 51°25' E 003°37'0 0.0
2018-Feb-21 08:25N 51°25' E 003°37'0 0.0
2018-Feb-21 07:55N 51°25' E 003°37'0 0.0
2018-Feb-21 07:25N 51°25' E 003°37'0 0.0
2018-Feb-21 06:55N 51°25' E 003°37'0 0.0
2018-Feb-21 06:25N 51°25' E 003°37'0 0.0
2018-Feb-21 05:58N 51°25' E 003°37'0 0.0
2018-Feb-21 05:25N 51°25' E 003°37'0 0.2
2018-Feb-21 04:55N 51°25' E 003°37'0 0.0
2018-Feb-21 04:22N 51°25' E 003°37'0 0.0
2018-Feb-21 03:55N 51°25' E 003°37'0 0.0
2018-Feb-21 03:28N 51°25' E 003°37'0 0.0
2018-Feb-21 02:58N 51°25' E 003°37'0 0.0
2018-Feb-21 02:25N 51°25' E 003°37'0 0.0
2018-Feb-21 01:58N 51°25' E 003°37'0 0.0
2018-Feb-21 01:28N 51°25' E 003°37'0 0.0
2018-Feb-21 00:49N 51°25' E 003°37'0 0.1
2018-Feb-21 00:25N 51°25' E 003°37'0 0.0
2018-Feb-20 23:55N 51°25' E 003°37'0 0.1
2018-Feb-20 23:28N 51°25' E 003°37'0 0.1
2018-Feb-20 22:55N 51°25' E 003°37'0 0.0
2018-Feb-20 22:28N 51°25' E 003°37'0 0.0
2018-Feb-20 21:55N 51°25' E 003°37'0 0.0
2018-Feb-20 21:25N 51°25' E 003°37'0 0.0
2018-Feb-20 20:55N 51°25' E 003°37'0 0.0
2018-Feb-20 20:28N 51°25' E 003°37'0 0.0
2018-Feb-20 19:58N 51°25' E 003°37'0 0.0
2018-Feb-20 19:22N 51°25' E 003°37'0 0.0
2018-Feb-20 19:00N 51°25' E 003°37'0 0.0
2018-Feb-20 18:30N 51°25' E 003°37'0 0.1
2018-Feb-20 18:00N 51°25' E 003°37'0 0.1
2018-Feb-20 17:30N 51°25' E 003°37'2 4.5
2018-Feb-20 17:01N 51°25' E 003°40'510.4
2018-Feb-20 16:30N 51°21' E 003°46'0 0.0
2018-Feb-20 15:58N 51°21' E 003°46'0 0.0
2018-Feb-20 15:25N 51°21' E 003°46'0 0.0
2018-Feb-20 14:58N 51°21' E 003°46'0 0.0
2018-Feb-20 14:28N 51°21' E 003°46'0 0.0
2018-Feb-20 13:58N 51°21' E 003°46'0 0.0
2018-Feb-20 13:28N 51°21' E 003°46'0 0.0
2018-Feb-20 12:58N 51°21' E 003°46'0 0.0
2018-Feb-20 12:28N 51°21' E 003°46'0 0.0
2018-Feb-20 11:55N 51°21' E 003°46'0 0.0
2018-Feb-20 11:22N 51°21' E 003°46'0 0.0
2018-Feb-20 10:58N 51°21' E 003°46'0 0.0
2018-Feb-20 10:28N 51°21' E 003°46'0 0.0
2018-Feb-20 09:58N 51°21' E 003°46'0 0.0
2018-Feb-20 09:28N 51°21' E 003°46'0 0.0
2018-Feb-20 08:58N 51°21' E 003°46'0 0.0
2018-Feb-20 08:28N 51°21' E 003°46'0 0.0
2018-Feb-20 07:58N 51°21' E 003°46'0 0.0
2018-Feb-20 07:28N 51°21' E 003°46'0 0.0
2018-Feb-20 06:58N 51°21' E 003°46'0 0.0
2018-Feb-20 06:28N 51°21' E 003°46'0 0.0
2018-Feb-20 05:58N 51°21' E 003°46'0 0.0
2018-Feb-20 05:28N 51°21' E 003°46'0 0.0
2018-Feb-20 04:58N 51°21' E 003°46'0 0.0
2018-Feb-20 04:28N 51°21' E 003°46'0 0.0
2018-Feb-20 03:58N 51°21' E 003°46'0 0.0
2018-Feb-20 03:25N 51°21' E 003°46'0 0.0
2018-Feb-20 02:58N 51°21' E 003°46'0 0.0
2018-Feb-20 02:28N 51°21' E 003°46'0 0.0
2018-Feb-20 01:52N 51°21' E 003°46'0 0.0
2018-Feb-20 01:28N 51°21' E 003°46'0 0.0
2018-Feb-20 00:58N 51°21' E 003°46'0 0.0
2018-Feb-20 00:28N 51°21' E 003°46'0 0.0
2018-Feb-20 00:00N 51°21' E 003°46'1 1.8
2018-Feb-19 23:30N 51°22' E 003°45'3 5.8
2018-Feb-19 23:00N 51°24' E 003°43'4 8.7
2018-Feb-19 22:30N 51°26' E 003°36'4 8.3
2018-Feb-19 22:00N 51°28' E 003°31'5 9.8
2018-Feb-19 21:29N 51°32' E 003°25'510.0
2018-Feb-19 20:59N 51°36' E 003°22'712.7
2018-Feb-19 20:28N 51°42' E 003°17'4 7.5
2018-Feb-19 19:59N 51°46' E 003°16'6 0.8
2018-Feb-19 11:38N 51°49' E 003°24'0 0.0
2018-Feb-18 22:08N 51°49' E 003°24'0 0.0
2018-Feb-18 21:41N 51°49' E 003°24'0 0.0
2018-Feb-18 21:05N 51°49' E 003°24'0 0.1
2018-Feb-18 17:45N 51°49' E 003°24'511.1
2018-Feb-18 17:16N 51°54' E 003°20'611.3
2018-Feb-18 16:46N 51°60' E 003°20'311.5
2018-Feb-18 16:28N 52°03' E 003°21'511.3
2018-Feb-18 16:00N 52°08' E 003°22'611.1
2018-Feb-18 15:29N 52°14' E 003°23'611.3
2018-Feb-18 14:56N 52°20' E 003°24'611.7
2018-Feb-18 14:26N 52°26' E 003°26'512.3
2018-Feb-18 14:00N 52°31' E 003°28'1312.8
2018-Feb-18 12:58N 52°43' E 003°39'713.5
2018-Feb-18 12:29N 52°48' E 003°46'613.6
2018-Feb-18 12:00N 52°52' E 003°53'813.6
2018-Feb-18 11:27N 52°58' E 004°01'913.6
2018-Feb-18 10:46N 53°04' E 004°13'413.3
2018-Feb-18 10:30N 53°06' E 004°17'713.1
2018-Feb-18 10:00N 53°11' E 004°25'1812.6
2018-Feb-18 08:34N 53°28' E 004°37'412.4
2018-Feb-18 08:16N 53°30' E 004°42'312.5
2018-Feb-18 08:00N 53°31' E 004°47'1812.0
2018-Feb-18 06:33N 53°37' E 005°14'212.4
2018-Feb-18 06:22N 53°38' E 005°18'9513.7
2018-Feb-17 23:27N 54°01' E 007°54'712.8
2018-Feb-17 22:51N 54°01' E 008°07'410.2
2018-Feb-17 22:30N 54°00' E 008°13'5 9.8
2018-Feb-17 22:00N 53°60' E 008°21'5 9.8
2018-Feb-17 21:30N 53°59' E 008°30'612.3
2018-Feb-17 21:00N 53°56' E 008°39'815.3
2018-Feb-17 20:30N 53°51' E 008°48'816.8
2018-Feb-17 20:00N 53°52' E 009°02'5 9.3
2018-Feb-17 19:30N 53°54' E 009°09'0 0.0
2018-Feb-17 19:00N 53°54' E 009°09'1 1.2
2018-Feb-17 18:30N 53°54' E 009°09'1 1.3
2018-Feb-17 17:59N 53°55' E 009°10'0 0.0
2018-Feb-17 17:29N 53°55' E 009°10'0 0.0
2018-Feb-17 16:59N 53°55' E 009°10'0 0.0
2018-Feb-17 16:29N 53°55' E 009°10'0 0.0
2018-Feb-17 15:59N 53°55' E 009°10'0 0.0
2018-Feb-17 15:29N 53°55' E 009°10'0 0.0
2018-Feb-17 14:59N 53°55' E 009°10'0 0.0
2018-Feb-17 14:14N 53°55' E 009°10'0 0.0
2018-Feb-17 13:50N 53°55' E 009°10'0 0.0
2018-Feb-17 13:29N 53°55' E 009°10'0 0.0
2018-Feb-17 12:56N 53°55' E 009°10'0 0.0
2018-Feb-17 12:26N 53°55' E 009°10'0 0.0
2018-Feb-17 11:59N 53°55' E 009°10'0 0.0
2018-Feb-17 11:29N 53°55' E 009°10'0 0.0
2018-Feb-17 10:56N 53°55' E 009°10'0 0.0
2018-Feb-17 10:29N 53°55' E 009°10'0 0.0
2018-Feb-17 09:56N 53°55' E 009°10'0 0.0
2018-Feb-17 09:26N 53°55' E 009°10'0 0.0
2018-Feb-17 08:56N 53°55' E 009°10'0 0.0
2018-Feb-17 08:29N 53°55' E 009°10'0 0.0
2018-Feb-17 07:56N 53°55' E 009°10'0 0.0
2018-Feb-17 07:29N 53°55' E 009°10'0 0.0
2018-Feb-17 06:56N 53°55' E 009°10'0 0.0
2018-Feb-17 06:29N 53°55' E 009°10'0 0.0
2018-Feb-17 05:59N 53°55' E 009°10'0 0.0
2018-Feb-17 05:23N 53°55' E 009°10'0 0.0
2018-Feb-17 04:59N 53°55' E 009°10'0 0.0
2018-Feb-17 04:29N 53°55' E 009°10'0 0.0
2018-Feb-17 03:59N 53°55' E 009°10'0 0.0
2018-Feb-17 03:30N 53°55' E 009°10'1 2.6
2018-Feb-17 03:00N 53°54' E 009°09'0 0.3
2018-Feb-17 02:30N 53°54' E 009°09'2 4.5
2018-Feb-17 02:01N 53°52' E 009°05'713.4
2018-Feb-17 01:30N 53°51' E 008°54'713.7
2018-Feb-17 01:00N 53°52' E 008°43'814.9
2018-Feb-17 00:30N 53°58' E 008°34'815.6
2018-Feb-17 00:00N 53°59' E 008°22'9 1.2
2018-Feb-16 16:38N 54°03' E 008°08'0 0.1
2018-Feb-16 16:30N 54°03' E 008°08'1 1.6
2018-Feb-16 15:56N 54°04' E 008°09'0 1.0
2018-Feb-16 15:30N 54°04' E 008°08'2 3.1
2018-Feb-16 14:59N 54°04' E 008°06'1 1.7
2018-Feb-16 14:28N 54°05' E 008°07'1 2.6
2018-Feb-16 13:56N 54°04' E 008°09'1 2.4
2018-Feb-16 13:30N 54°05' E 008°08'2 4.1
2018-Feb-16 12:58N 54°04' E 008°04'1 1.9
2018-Feb-16 12:30N 54°04' E 008°02'1 1.2
2018-Feb-16 12:00N 54°04' E 008°03'1 1.0
2018-Feb-16 11:29N 54°04' E 008°04'0 0.8
2018-Feb-16 11:00N 54°04' E 008°05'0 0.9
2018-Feb-16 10:27N 54°04' E 008°06'0 0.8
2018-Feb-16 10:00N 54°04' E 008°06'0 0.9
2018-Feb-16 09:28N 54°04' E 008°07'1 0.1
2018-Feb-16 04:41N 54°03' E 008°08'0 0.0
2018-Feb-16 04:29N 54°03' E 008°08'0 0.1
2018-Feb-16 03:59N 54°03' E 008°08'0 0.0
2018-Feb-16 03:23N 54°03' E 008°08'0 0.1
2018-Feb-16 02:56N 54°03' E 008°08'0 0.0
2018-Feb-16 02:29N 54°03' E 008°08'0 0.1
2018-Feb-16 01:59N 54°03' E 008°08'0 0.1
2018-Feb-16 01:26N 54°03' E 008°08'0 0.0
2018-Feb-16 00:59N 54°03' E 008°08'0 0.0
2018-Feb-16 00:29N 54°03' E 008°08'0 0.0
2018-Feb-15 23:56N 54°03' E 008°08'0 0.0
2018-Feb-15 23:20N 54°03' E 008°08'0 0.0
2018-Feb-15 22:59N 54°03' E 008°08'0 0.0
2018-Feb-15 22:29N 54°03' E 008°08'0 0.0
2018-Feb-15 21:59N 54°03' E 008°08'0 0.0
2018-Feb-15 21:26N 54°03' E 008°08'0 0.0
2018-Feb-15 20:59N 54°03' E 008°08'0 0.0
2018-Feb-15 20:26N 54°03' E 008°08'0 0.0
2018-Feb-15 19:59N 54°03' E 008°08'0 0.0
2018-Feb-15 19:26N 54°03' E 008°08'0 0.0
2018-Feb-15 18:56N 54°03' E 008°08'0 0.0
2018-Feb-15 18:29N 54°03' E 008°08'0 0.1
2018-Feb-15 17:59N 54°03' E 008°08'0 0.1
2018-Feb-15 17:26N 54°03' E 008°08'0 0.0
2018-Feb-15 16:35N 54°03' E 008°08'0 0.0
2018-Feb-15 10:02N 54°03' E 008°08'0 0.0
2018-Feb-15 09:41N 54°03' E 008°08'0 0.0
2018-Feb-15 08:26N 54°03' E 008°08'0 0.0
2018-Feb-15 06:23N 54°03' E 008°08'0 0.0
2018-Feb-15 06:00N 54°03' E 008°08'3 6.8
2018-Feb-15 05:30N 54°01' E 008°12'714.7
2018-Feb-15 05:00N 53°59' E 008°24'817.1
2018-Feb-15 04:30N 53°57' E 008°38'816.7
2018-Feb-15 04:00N 53°51' E 008°47'816.1
2018-Feb-15 03:31N 53°51' E 009°00'713.3
2018-Feb-15 03:00N 53°53' E 009°11'713.6
2018-Feb-15 02:30N 53°50' E 009°21'612.4
2018-Feb-15 02:00N 53°44' E 009°26'510.9
2018-Feb-15 01:30N 53°40' E 009°31'510.7
2018-Feb-15 01:00N 53°35' E 009°37'5 9.3
2018-Feb-15 00:31N 53°34' E 009°44'5 9.2
2018-Feb-15 00:00N 53°33' E 009°52'3 6.9
2018-Feb-14 23:30N 53°31' E 009°56'2 4.2
2018-Feb-14 22:58N 53°29' E 009°57'0 0.0
2018-Feb-14 22:28N 53°29' E 009°57'0 0.0
2018-Feb-14 21:58N 53°29' E 009°57'0 0.0
2018-Feb-14 21:28N 53°29' E 009°57'0 0.0
2018-Feb-14 20:58N 53°29' E 009°57'0 0.0
2018-Feb-14 20:28N 53°29' E 009°57'0 0.0
2018-Feb-14 19:58N 53°29' E 009°57'0 0.0
2018-Feb-14 19:28N 53°29' E 009°57'0 0.0
2018-Feb-14 18:58N 53°29' E 009°57'0 0.0
2018-Feb-14 18:28N 53°29' E 009°57'0 0.0
2018-Feb-14 17:58N 53°29' E 009°57'0 0.0
2018-Feb-14 17:28N 53°29' E 009°57'0 0.0
2018-Feb-14 16:58N 53°29' E 009°57'0 0.0
2018-Feb-14 16:28N 53°29' E 009°57'0 0.0
2018-Feb-14 15:58N 53°29' E 009°57'0 0.0
2018-Feb-14 15:28N 53°29' E 009°57'0 0.0
2018-Feb-14 14:58N 53°29' E 009°57'0 0.0
2018-Feb-14 14:28N 53°29' E 009°57'0 0.0
2018-Feb-14 13:58N 53°29' E 009°57'0 0.0
2018-Feb-14 13:28N 53°29' E 009°57'0 0.0
2018-Feb-14 12:58N 53°29' E 009°57'0 0.0
2018-Feb-14 12:28N 53°29' E 009°57'0 0.0
2018-Feb-14 11:58N 53°29' E 009°57'0 0.0
2018-Feb-14 11:25N 53°29' E 009°57'0 0.0
2018-Feb-14 10:58N 53°29' E 009°57'0 0.0
2018-Feb-14 10:28N 53°29' E 009°57'0 0.0
2018-Feb-14 09:58N 53°29' E 009°57'0 0.0
2018-Feb-14 09:28N 53°29' E 009°57'0 0.0
2018-Feb-14 08:58N 53°29' E 009°57'0 0.0
2018-Feb-14 08:28N 53°29' E 009°57'0 0.0
2018-Feb-14 07:58N 53°29' E 009°57'0 0.9
2018-Feb-14 07:30N 53°29' E 009°58'1 2.5
2018-Feb-14 07:00N 53°30' E 009°57'3 5.5
2018-Feb-14 06:30N 53°32' E 009°55'3 6.4
2018-Feb-14 06:00N 53°33' E 009°49'4 8.7
2018-Feb-14 05:30N 53°34' E 009°42'4 8.5
2018-Feb-14 05:00N 53°36' E 009°36'4 8.6
2018-Feb-14 04:30N 53°39' E 009°31'4 8.8
2018-Feb-14 04:00N 53°43' E 009°28'4 8.4
2018-Feb-14 03:31N 53°46' E 009°24'4 8.8
2018-Feb-14 03:00N 53°50' E 009°20'5 9.2
2018-Feb-14 02:30N 53°53' E 009°14'4 8.8
2018-Feb-14 02:00N 53°53' E 009°06'4 7.6
2018-Feb-14 01:30N 53°51' E 009°00'4 8.2
2018-Feb-14 01:00N 53°50' E 008°53'4 9.0
2018-Feb-14 00:30N 53°51' E 008°46'5 9.5
2018-Feb-14 00:00N 53°55' E 008°41'510.5
2018-Feb-13 23:30N 53°58' E 008°34'612.3
2018-Feb-13 23:00N 53°59' E 008°24'612.7
2018-Feb-13 22:30N 53°59' E 008°13'613.0
2018-Feb-13 22:00N 53°59' E 008°02'814.9
2018-Feb-13 21:30N 53°57' E 007°49'  

Dump ship's entire track history